sensor_id;sensor_type;location;lat;lon;timestamp;pressure;altitude;pressure_sealevel;temperature;humidity
18527;BME280;9393;42.158;24.748;2023-02-22T00:01:46;99331.56;;;15.88;33.68
18527;BME280;9393;42.158;24.748;2023-02-22T00:04:52;99339.47;;;16.03;33.43
18527;BME280;9393;42.158;24.748;2023-02-22T00:07:56;99331.75;;;16.01;33.36
18527;BME280;9393;42.158;24.748;2023-02-22T00:11:04;99333.19;;;16.04;33.32
18527;BME280;9393;42.158;24.748;2023-02-22T00:14:11;99343.25;;;16.00;33.24
18527;BME280;9393;42.158;24.748;2023-02-22T00:17:15;99343.72;;;16.04;33.44
18527;BME280;9393;42.158;24.748;2023-02-22T00:20:20;99334.47;;;16.08;33.15
18527;BME280;9393;42.158;24.748;2023-02-22T00:23:26;99342.72;;;16.20;33.28
18527;BME280;9393;42.158;24.748;2023-02-22T00:26:32;99340.81;;;16.13;33.08
18527;BME280;9393;42.158;24.748;2023-02-22T00:29:37;99331.75;;;16.01;33.18
18527;BME280;9393;42.158;24.748;2023-02-22T00:32:41;99338.75;;;16.09;33.13
18527;BME280;9393;42.158;24.748;2023-02-22T00:35:47;99341.66;;;15.99;33.32
18527;BME280;9393;42.158;24.748;2023-02-22T00:38:51;99330.38;;;15.76;33.63
18527;BME280;9393;42.158;24.748;2023-02-22T00:41:55;99333.91;;;15.83;33.47
18527;BME280;9393;42.158;24.748;2023-02-22T00:45:00;99335.38;;;16.00;33.50
18527;BME280;9393;42.158;24.748;2023-02-22T00:48:05;99334.56;;;16.14;33.15
18527;BME280;9393;42.158;24.748;2023-02-22T00:51:09;99339.06;;;16.21;33.21
18527;BME280;9393;42.158;24.748;2023-02-22T00:54:13;99343.34;;;16.07;33.31
18527;BME280;9393;42.158;24.748;2023-02-22T00:57:19;99351.50;;;15.97;33.62
18527;BME280;9393;42.158;24.748;2023-02-22T01:00:27;99346.63;;;16.09;33.45
18527;BME280;9393;42.158;24.748;2023-02-22T01:03:31;99352.59;;;16.17;33.37
18527;BME280;9393;42.158;24.748;2023-02-22T01:06:36;99348.97;;;16.04;33.57
18527;BME280;9393;42.158;24.748;2023-02-22T01:09:40;99347.31;;;15.74;34.07
18527;BME280;9393;42.158;24.748;2023-02-22T01:12:45;99341.63;;;15.85;33.83
18527;BME280;9393;42.158;24.748;2023-02-22T01:15:51;99339.25;;;15.90;34.08
18527;BME280;9393;42.158;24.748;2023-02-22T01:18:57;99338.72;;;15.80;34.18
18527;BME280;9393;42.158;24.748;2023-02-22T01:22:03;99341.78;;;15.83;34.23
18527;BME280;9393;42.158;24.748;2023-02-22T01:25:07;99331.28;;;15.83;34.21
18527;BME280;9393;42.158;24.748;2023-02-22T01:28:11;99340.41;;;15.73;34.43
18527;BME280;9393;42.158;24.748;2023-02-22T01:31:17;99337.44;;;15.61;34.50
18527;BME280;9393;42.158;24.748;2023-02-22T01:34:23;99337.63;;;15.74;34.31
18527;BME280;9393;42.158;24.748;2023-02-22T01:37:27;99327.94;;;15.37;34.76
18527;BME280;9393;42.158;24.748;2023-02-22T01:40:33;99332.34;;;15.37;34.88
18527;BME280;9393;42.158;24.748;2023-02-22T01:43:37;99330.06;;;15.56;34.52
18527;BME280;9393;42.158;24.748;2023-02-22T01:46:42;99334.97;;;15.59;34.52
18527;BME280;9393;42.158;24.748;2023-02-22T01:49:48;99325.03;;;15.47;34.51
18527;BME280;9393;42.158;24.748;2023-02-22T01:52:53;99331.25;;;15.54;34.61
18527;BME280;9393;42.158;24.748;2023-02-22T01:55:57;99331.72;;;15.57;34.59
18527;BME280;9393;42.158;24.748;2023-02-22T01:59:05;99332.78;;;15.63;34.32
18527;BME280;9393;42.158;24.748;2023-02-22T02:02:11;99335.06;;;15.66;34.16
18527;BME280;9393;42.158;24.748;2023-02-22T02:05:16;99329.38;;;15.77;34.16
18527;BME280;9393;42.158;24.748;2023-02-22T02:08:26;99328.75;;;15.75;34.29
18527;BME280;9393;42.158;24.748;2023-02-22T02:11:32;99337.88;;;15.79;34.27
18527;BME280;9393;42.158;24.748;2023-02-22T02:14:36;99339.47;;;15.88;34.09
18527;BME280;9393;42.158;24.748;2023-02-22T02:17:43;99346.00;;;15.92;34.07
18527;BME280;9393;42.158;24.748;2023-02-22T02:20:57;99349.69;;;15.69;34.36
18527;BME280;9393;42.158;24.748;2023-02-22T02:28:25;99351.00;;;15.50;34.95
18527;BME280;9393;42.158;24.748;2023-02-22T02:35:19;99344.69;;;15.36;35.01
18527;BME280;9393;42.158;24.748;2023-02-22T02:38:31;99348.63;;;15.55;34.71
18527;BME280;9393;42.158;24.748;2023-02-22T02:41:41;99348.03;;;15.68;34.53
18527;BME280;9393;42.158;24.748;2023-02-22T02:44:52;99351.16;;;15.48;34.82
18527;BME280;9393;42.158;24.748;2023-02-22T02:48:01;99338.69;;;15.42;34.84
18527;BME280;9393;42.158;24.748;2023-02-22T02:51:10;99346.13;;;15.61;34.44
18527;BME280;9393;42.158;24.748;2023-02-22T02:54:17;99358.81;;;15.58;34.87
18527;BME280;9393;42.158;24.748;2023-02-22T02:57:26;99361.06;;;15.38;34.98
18527;BME280;9393;42.158;24.748;2023-02-22T03:00:32;99367.44;;;14.98;35.88
18527;BME280;9393;42.158;24.748;2023-02-22T03:03:50;99366.28;;;14.70;36.35
18527;BME280;9393;42.158;24.748;2023-02-22T03:07:13;99376.41;;;15.04;35.91
18527;BME280;9393;42.158;24.748;2023-02-22T03:10:35;99366.00;;;15.18;35.88
18527;BME280;9393;42.158;24.748;2023-02-22T03:13:49;99364.53;;;15.16;35.86
18527;BME280;9393;42.158;24.748;2023-02-22T03:17:03;99366.84;;;15.11;35.81
18527;BME280;9393;42.158;24.748;2023-02-22T03:20:19;99368.72;;;15.02;35.69
18527;BME280;9393;42.158;24.748;2023-02-22T03:23:30;99372.34;;;15.01;35.83
18527;BME280;9393;42.158;24.748;2023-02-22T03:26:39;99383.00;;;15.00;35.69
18527;BME280;9393;42.158;24.748;2023-02-22T03:29:44;99379.84;;;14.82;35.87
18527;BME280;9393;42.158;24.748;2023-02-22T03:32:51;99392.06;;;14.97;35.97
18527;BME280;9393;42.158;24.748;2023-02-22T03:36:04;99394.44;;;14.45;36.68
18527;BME280;9393;42.158;24.748;2023-02-22T03:39:13;99399.66;;;14.61;36.60
18527;BME280;9393;42.158;24.748;2023-02-22T03:42:23;99406.13;;;14.74;36.47
18527;BME280;9393;42.158;24.748;2023-02-22T03:45:29;99398.97;;;14.59;36.46
18527;BME280;9393;42.158;24.748;2023-02-22T03:48:40;99395.63;;;14.35;37.01
18527;BME280;9393;42.158;24.748;2023-02-22T03:51:46;99398.97;;;14.59;36.41
18527;BME280;9393;42.158;24.748;2023-02-22T03:54:52;99397.88;;;14.46;36.53
18527;BME280;9393;42.158;24.748;2023-02-22T03:57:58;99400.69;;;14.44;36.82
18527;BME280;9393;42.158;24.748;2023-02-22T04:01:05;99401.38;;;14.69;36.49
18527;BME280;9393;42.158;24.748;2023-02-22T04:04:09;99397.97;;;14.69;36.36
18527;BME280;9393;42.158;24.748;2023-02-22T04:07:13;99401.66;;;14.51;36.63
18527;BME280;9393;42.158;24.748;2023-02-22T04:10:19;99398.13;;;14.20;36.73
18527;BME280;9393;42.158;24.748;2023-02-22T04:13:23;99396.25;;;14.45;36.43
18527;BME280;9393;42.158;24.748;2023-02-22T04:16:29;99391.38;;;14.26;36.55
18527;BME280;9393;42.158;24.748;2023-02-22T04:19:34;99392.50;;;14.39;36.35
18527;BME280;9393;42.158;24.748;2023-02-22T04:22:39;99397.41;;;14.42;36.29
18527;BME280;9393;42.158;24.748;2023-02-22T04:25:44;99399.03;;;14.51;36.04
18527;BME280;9393;42.158;24.748;2023-02-22T04:28:51;99395.09;;;14.47;36.12
18527;BME280;9393;42.158;24.748;2023-02-22T04:31:57;99399.16;;;14.58;36.20
18527;BME280;9393;42.158;24.748;2023-02-22T04:35:01;99402.41;;;14.68;35.83
18527;BME280;9393;42.158;24.748;2023-02-22T04:38:06;99402.44;;;14.52;36.27
18527;BME280;9393;42.158;24.748;2023-02-22T04:41:16;99402.06;;;14.71;35.85
18527;BME280;9393;42.158;24.748;2023-02-22T04:44:21;99398.41;;;14.72;35.96
18527;BME280;9393;42.158;24.748;2023-02-22T04:47:25;99392.38;;;14.72;35.55
18527;BME280;9393;42.158;24.748;2023-02-22T04:50:29;99389.44;;;14.66;35.58
18527;BME280;9393;42.158;24.748;2023-02-22T04:53:32;99394.28;;;14.86;35.17
18527;BME280;9393;42.158;24.748;2023-02-22T04:56:38;99396.25;;;14.84;35.32
18527;BME280;9393;42.158;24.748;2023-02-22T04:59:42;99398.25;;;14.74;35.54
18527;BME280;9393;42.158;24.748;2023-02-22T05:02:46;99386.22;;;14.87;35.30
18527;BME280;9393;42.158;24.748;2023-02-22T05:05:51;99393.69;;;14.98;35.16
18527;BME280;9393;42.158;24.748;2023-02-22T05:08:55;99390.09;;;14.99;34.87
18527;BME280;9393;42.158;24.748;2023-02-22T05:12:00;99391.13;;;14.90;34.79
18527;BME280;9393;42.158;24.748;2023-02-22T05:15:05;99397.06;;;14.84;34.88
18527;BME280;9393;42.158;24.748;2023-02-22T05:18:09;99389.22;;;14.76;34.68
18527;BME280;9393;42.158;24.748;2023-02-22T05:21:13;99404.16;;;15.06;34.55
18527;BME280;9393;42.158;24.748;2023-02-22T05:24:18;99395.84;;;14.95;34.47
18527;BME280;9393;42.158;24.748;2023-02-22T05:27:23;99402.16;;;15.08;34.24
18527;BME280;9393;42.158;24.748;2023-02-22T05:30:29;99407.13;;;15.03;34.08
18527;BME280;9393;42.158;24.748;2023-02-22T05:33:34;99399.78;;;15.22;34.19
18527;BME280;9393;42.158;24.748;2023-02-22T05:36:38;99408.38;;;15.38;33.59
18527;BME280;9393;42.158;24.748;2023-02-22T05:39:41;99422.94;;;15.49;33.70
18527;BME280;9393;42.158;24.748;2023-02-22T05:42:49;99409.84;;;15.41;33.65
18527;BME280;9393;42.158;24.748;2023-02-22T05:45:53;99412.19;;;15.58;33.69
18527;BME280;9393;42.158;24.748;2023-02-22T05:48:57;99411.25;;;15.74;33.43
18527;BME280;9393;42.158;24.748;2023-02-22T05:52:01;99423.47;;;15.67;33.52
18527;BME280;9393;42.158;24.748;2023-02-22T05:55:06;99416.75;;;15.64;33.28
18527;BME280;9393;42.158;24.748;2023-02-22T05:58:11;99423.56;;;15.74;32.81
18527;BME280;9393;42.158;24.748;2023-02-22T06:01:16;99427.59;;;15.84;32.81
18527;BME280;9393;42.158;24.748;2023-02-22T06:04:21;99431.19;;;15.83;32.81
18527;BME280;9393;42.158;24.748;2023-02-22T06:07:24;99436.78;;;16.03;32.73
18527;BME280;9393;42.158;24.748;2023-02-22T06:10:29;99436.69;;;16.11;32.64
18527;BME280;9393;42.158;24.748;2023-02-22T06:13:34;99437.88;;;16.08;32.72
18527;BME280;9393;42.158;24.748;2023-02-22T06:16:38;99437.59;;;16.03;32.93
18527;BME280;9393;42.158;24.748;2023-02-22T06:19:42;99444.94;;;16.08;33.03
18527;BME280;9393;42.158;24.748;2023-02-22T06:22:46;99438.03;;;16.07;32.93
18527;BME280;9393;42.158;24.748;2023-02-22T06:25:50;99438.31;;;15.97;33.28
18527;BME280;9393;42.158;24.748;2023-02-22T06:28:55;99434.72;;;15.76;33.57
18527;BME280;9393;42.158;24.748;2023-02-22T06:31:59;99444.38;;;15.98;33.22
18527;BME280;9393;42.158;24.748;2023-02-22T06:35:04;99445.09;;;15.92;33.26
18527;BME280;9393;42.158;24.748;2023-02-22T06:38:08;99447.91;;;15.90;33.27
18527;BME280;9393;42.158;24.748;2023-02-22T06:41:12;99453.72;;;16.00;33.21
18527;BME280;9393;42.158;24.748;2023-02-22T06:44:18;99453.50;;;16.10;32.61
18527;BME280;9393;42.158;24.748;2023-02-22T06:47:22;99460.72;;;16.08;32.53
18527;BME280;9393;42.158;24.748;2023-02-22T06:50:28;99467.41;;;16.48;32.46
18527;BME280;9393;42.158;24.748;2023-02-22T06:53:32;99459.94;;;17.10;31.56
18527;BME280;9393;42.158;24.748;2023-02-22T06:56:36;99463.53;;;17.59;31.35
18527;BME280;9393;42.158;24.748;2023-02-22T06:59:42;99454.16;;;17.99;30.82
18527;BME280;9393;42.158;24.748;2023-02-22T07:02:46;99466.66;;;18.46;30.80
18527;BME280;9393;42.158;24.748;2023-02-22T07:05:50;99465.25;;;18.78;30.38
18527;BME280;9393;42.158;24.748;2023-02-22T07:08:54;99471.91;;;19.28;29.65
18527;BME280;9393;42.158;24.748;2023-02-22T07:11:58;99474.03;;;19.46;28.99
18527;BME280;9393;42.158;24.748;2023-02-22T07:15:05;99464.72;;;19.70;28.67
18527;BME280;9393;42.158;24.748;2023-02-22T07:18:09;99465.13;;;19.86;28.93
18527;BME280;9393;42.158;24.748;2023-02-22T07:21:13;99461.69;;;19.99;28.03
18527;BME280;9393;42.158;24.748;2023-02-22T07:24:18;99464.53;;;20.37;27.66
18527;BME280;9393;42.158;24.748;2023-02-22T07:27:22;99467.16;;;20.43;27.37
18527;BME280;9393;42.158;24.748;2023-02-22T07:30:29;99459.25;;;20.94;27.13
18527;BME280;9393;42.158;24.748;2023-02-22T07:33:33;99457.69;;;20.80;27.23
18527;BME280;9393;42.158;24.748;2023-02-22T07:36:38;99452.97;;;20.89;26.91
18527;BME280;9393;42.158;24.748;2023-02-22T07:39:42;99453.81;;;21.34;26.62
18527;BME280;9393;42.158;24.748;2023-02-22T07:42:53;99448.94;;;21.24;26.16
18527;BME280;9393;42.158;24.748;2023-02-22T07:45:59;99454.41;;;21.36;26.07
18527;BME280;9393;42.158;24.748;2023-02-22T07:49:04;99444.94;;;21.78;26.08
18527;BME280;9393;42.158;24.748;2023-02-22T07:52:08;99447.94;;;21.56;26.06
18527;BME280;9393;42.158;24.748;2023-02-22T07:55:14;99444.06;;;21.84;25.96
18527;BME280;9393;42.158;24.748;2023-02-22T07:58:22;99448.00;;;22.06;25.84
18527;BME280;9393;42.158;24.748;2023-02-22T08:01:28;99439.59;;;22.09;25.78
18527;BME280;9393;42.158;24.748;2023-02-22T08:04:33;99436.94;;;22.09;25.69
18527;BME280;9393;42.158;24.748;2023-02-22T08:07:37;99434.03;;;22.10;25.63
18527;BME280;9393;42.158;24.748;2023-02-22T08:10:41;99437.44;;;22.60;25.51
18527;BME280;9393;42.158;24.748;2023-02-22T08:13:46;99439.97;;;22.74;25.13
18527;BME280;9393;42.158;24.748;2023-02-22T08:16:52;99434.66;;;23.03;24.96
18527;BME280;9393;42.158;24.748;2023-02-22T08:19:55;99422.78;;;23.06;24.91
18527;BME280;9393;42.158;24.748;2023-02-22T08:23:00;99430.81;;;22.88;24.88
18527;BME280;9393;42.158;24.748;2023-02-22T08:26:07;99421.72;;;22.95;25.01
18527;BME280;9393;42.158;24.748;2023-02-22T08:29:11;99419.78;;;23.02;25.05
18527;BME280;9393;42.158;24.748;2023-02-22T08:32:17;99413.88;;;22.64;25.39
18527;BME280;9393;42.158;24.748;2023-02-22T08:35:21;99420.06;;;22.94;25.26
18527;BME280;9393;42.158;24.748;2023-02-22T08:38:28;99410.19;;;22.65;25.46
18527;BME280;9393;42.158;24.748;2023-02-22T08:41:33;99406.03;;;23.17;25.03
18527;BME280;9393;42.158;24.748;2023-02-22T08:44:38;99402.91;;;23.08;25.40
18527;BME280;9393;42.158;24.748;2023-02-22T08:47:44;99406.13;;;22.81;25.32
18527;BME280;9393;42.158;24.748;2023-02-22T08:50:48;99401.94;;;23.33;24.83
18527;BME280;9393;42.158;24.748;2023-02-22T08:53:52;99406.88;;;23.59;25.05
18527;BME280;9393;42.158;24.748;2023-02-22T08:56:57;99405.66;;;23.61;24.80
18527;BME280;9393;42.158;24.748;2023-02-22T09:00:01;99409.19;;;23.44;24.96
18527;BME280;9393;42.158;24.748;2023-02-22T09:03:08;99404.34;;;23.23;25.22
18527;BME280;9393;42.158;24.748;2023-02-22T09:06:14;99406.97;;;23.41;25.07
18527;BME280;9393;42.158;24.748;2023-02-22T09:09:18;99410.03;;;23.68;24.97
18527;BME280;9393;42.158;24.748;2023-02-22T09:12:23;99407.84;;;23.35;25.01
18527;BME280;9393;42.158;24.748;2023-02-22T09:15:27;99405.78;;;23.78;24.68
18527;BME280;9393;42.158;24.748;2023-02-22T09:18:33;99404.03;;;23.84;24.97
18527;BME280;9393;42.158;24.748;2023-02-22T09:21:51;99403.50;;;24.17;24.43
18527;BME280;9393;42.158;24.748;2023-02-22T09:24:55;99409.13;;;24.43;24.19
18527;BME280;9393;42.158;24.748;2023-02-22T09:28:04;99403.47;;;24.05;24.28
18527;BME280;9393;42.158;24.748;2023-02-22T09:31:08;99393.97;;;24.09;24.61
18527;BME280;9393;42.158;24.748;2023-02-22T09:34:13;99394.44;;;24.41;24.39
18527;BME280;9393;42.158;24.748;2023-02-22T09:37:18;99392.94;;;24.73;24.23
18527;BME280;9393;42.158;24.748;2023-02-22T09:40:23;99397.91;;;24.81;23.63
18527;BME280;9393;42.158;24.748;2023-02-22T09:43:37;99386.22;;;24.82;23.64
18527;BME280;9393;42.158;24.748;2023-02-22T09:46:44;99385.41;;;24.70;24.08
18527;BME280;9393;42.158;24.748;2023-02-22T09:49:57;99381.34;;;25.36;23.80
18527;BME280;9393;42.158;24.748;2023-02-22T09:53:06;99379.75;;;25.51;23.28
18527;BME280;9393;42.158;24.748;2023-02-22T09:56:13;99379.63;;;25.58;23.31
18527;BME280;9393;42.158;24.748;2023-02-22T09:59:23;99369.00;;;25.63;23.15
18527;BME280;9393;42.158;24.748;2023-02-22T10:02:31;99371.63;;;25.46;23.19
18527;BME280;9393;42.158;24.748;2023-02-22T10:05:41;99373.09;;;25.37;22.95
18527;BME280;9393;42.158;24.748;2023-02-22T10:08:48;99366.78;;;25.43;23.33
18527;BME280;9393;42.158;24.748;2023-02-22T10:11:57;99355.53;;;25.91;22.67
18527;BME280;9393;42.158;24.748;2023-02-22T10:15:40;99353.59;;;25.87;22.71
18527;BME280;9393;42.158;24.748;2023-02-22T10:19:09;99348.69;;;25.79;22.80
18527;BME280;9393;42.158;24.748;2023-02-22T10:22:40;99347.94;;;25.50;23.25
18527;BME280;9393;42.158;24.748;2023-02-22T10:25:49;99335.03;;;25.97;22.63
18527;BME280;9393;42.158;24.748;2023-02-22T10:28:59;99338.22;;;25.77;22.53
18527;BME280;9393;42.158;24.748;2023-02-22T10:32:05;99327.41;;;26.05;22.57
18527;BME280;9393;42.158;24.748;2023-02-22T10:35:17;99320.72;;;26.03;22.45
18527;BME280;9393;42.158;24.748;2023-02-22T10:38:26;99307.81;;;26.00;22.16
18527;BME280;9393;42.158;24.748;2023-02-22T10:41:32;99303.88;;;26.24;21.96
18527;BME280;9393;42.158;24.748;2023-02-22T10:44:38;99300.91;;;25.82;22.35
18527;BME280;9393;42.158;24.748;2023-02-22T10:47:43;99293.13;;;26.19;22.14
18527;BME280;9393;42.158;24.748;2023-02-22T10:50:48;99286.16;;;26.40;22.04
18527;BME280;9393;42.158;24.748;2023-02-22T10:53:58;99278.75;;;26.74;21.85
18527;BME280;9393;42.158;24.748;2023-02-22T10:57:10;99276.06;;;26.95;21.72
18527;BME280;9393;42.158;24.748;2023-02-22T11:00:19;99279.69;;;26.36;21.97
18527;BME280;9393;42.158;24.748;2023-02-22T11:03:27;99261.41;;;26.28;22.21
18527;BME280;9393;42.158;24.748;2023-02-22T11:06:32;99269.66;;;26.04;22.08
18527;BME280;9393;42.158;24.748;2023-02-22T11:09:50;99255.72;;;26.41;22.16
18527;BME280;9393;42.158;24.748;2023-02-22T11:12:54;99263.38;;;26.59;21.92
18527;BME280;9393;42.158;24.748;2023-02-22T11:16:00;99250.66;;;26.71;21.75
18527;BME280;9393;42.158;24.748;2023-02-22T11:19:11;99246.03;;;26.61;21.40
18527;BME280;9393;42.158;24.748;2023-02-22T11:22:22;99247.91;;;26.39;21.41
18527;BME280;9393;42.158;24.748;2023-02-22T11:25:31;99245.75;;;26.63;21.26
18527;BME280;9393;42.158;24.748;2023-02-22T11:28:36;99241.41;;;26.30;21.20
18527;BME280;9393;42.158;24.748;2023-02-22T11:31:50;99232.13;;;25.94;21.75
18527;BME280;9393;42.158;24.748;2023-02-22T11:35:16;99233.50;;;26.40;21.26
18527;BME280;9393;42.158;24.748;2023-02-22T11:38:23;99231.28;;;26.32;21.45
18527;BME280;9393;42.158;24.748;2023-02-22T11:41:31;99227.47;;;26.28;21.59
18527;BME280;9393;42.158;24.748;2023-02-22T11:44:36;99217.56;;;26.50;20.76
18527;BME280;9393;42.158;24.748;2023-02-22T11:47:50;99212.38;;;25.74;21.41
18527;BME280;9393;42.158;24.748;2023-02-22T11:51:05;99212.84;;;26.14;21.22
18527;BME280;9393;42.158;24.748;2023-02-22T11:54:28;99203.19;;;26.08;21.32
18527;BME280;9393;42.158;24.748;2023-02-22T11:57:44;99213.94;;;25.91;21.54
18527;BME280;9393;42.158;24.748;2023-02-22T12:00:54;99194.28;;;25.59;21.54
18527;BME280;9393;42.158;24.748;2023-02-22T12:04:26;99201.00;;;25.83;21.51
18527;BME280;9393;42.158;24.748;2023-02-22T12:07:47;99193.97;;;25.55;21.77
18527;BME280;9393;42.158;24.748;2023-02-22T12:10:58;99195.34;;;25.80;21.18
18527;BME280;9393;42.158;24.748;2023-02-22T12:14:16;99194.91;;;25.66;21.35
18527;BME280;9393;42.158;24.748;2023-02-22T12:17:32;99185.00;;;25.61;21.48
18527;BME280;9393;42.158;24.748;2023-02-22T12:20:45;99184.47;;;25.86;21.70
18527;BME280;9393;42.158;24.748;2023-02-22T12:23:55;99174.97;;;25.52;21.78
18527;BME280;9393;42.158;24.748;2023-02-22T12:27:06;99179.34;;;26.06;21.40
18527;BME280;9393;42.158;24.748;2023-02-22T12:30:18;99175.91;;;26.06;21.48
18527;BME280;9393;42.158;24.748;2023-02-22T12:33:28;99168.19;;;26.09;21.32
18527;BME280;9393;42.158;24.748;2023-02-22T12:36:39;99166.31;;;26.10;21.32
18527;BME280;9393;42.158;24.748;2023-02-22T12:39:58;99171.00;;;26.20;21.06
18527;BME280;9393;42.158;24.748;2023-02-22T12:43:13;99164.75;;;26.36;21.17
18527;BME280;9393;42.158;24.748;2023-02-22T12:46:26;99162.00;;;26.31;21.08
18527;BME280;9393;42.158;24.748;2023-02-22T12:49:37;99164.28;;;25.95;21.45
18527;BME280;9393;42.158;24.748;2023-02-22T12:52:46;99155.75;;;25.72;21.57
18527;BME280;9393;42.158;24.748;2023-02-22T12:55:57;99155.03;;;25.81;21.21
18527;BME280;9393;42.158;24.748;2023-02-22T12:59:09;99150.75;;;25.58;21.80
18527;BME280;9393;42.158;24.748;2023-02-22T13:02:19;99150.81;;;25.85;21.39
18527;BME280;9393;42.158;24.748;2023-02-22T13:05:25;99147.66;;;25.88;21.32
18527;BME280;9393;42.158;24.748;2023-02-22T13:08:34;99142.50;;;25.82;21.72
18527;BME280;9393;42.158;24.748;2023-02-22T13:11:45;99133.09;;;25.79;21.26
18527;BME280;9393;42.158;24.748;2023-02-22T13:15:01;99129.47;;;25.63;21.56
18527;BME280;9393;42.158;24.748;2023-02-22T13:18:17;99131.41;;;25.68;21.82
18527;BME280;9393;42.158;24.748;2023-02-22T13:21:28;99125.28;;;25.73;21.60
18527;BME280;9393;42.158;24.748;2023-02-22T13:24:48;99132.63;;;25.60;21.77
18527;BME280;9393;42.158;24.748;2023-02-22T13:27:59;99116.25;;;25.35;22.00
18527;BME280;9393;42.158;24.748;2023-02-22T13:31:24;99129.56;;;25.52;21.63
18527;BME280;9393;42.158;24.748;2023-02-22T13:34:55;99125.50;;;25.28;21.65
18527;BME280;9393;42.158;24.748;2023-02-22T13:38:28;99120.84;;;25.56;21.79
18527;BME280;9393;42.158;24.748;2023-02-22T13:41:51;99126.25;;;25.45;21.43
18527;BME280;9393;42.158;24.748;2023-02-22T13:52:37;99118.41;;;25.55;21.53
18527;BME280;9393;42.158;24.748;2023-02-22T13:55:46;99122.47;;;25.41;21.42
18527;BME280;9393;42.158;24.748;2023-02-22T13:58:57;99118.16;;;25.18;22.09
18527;BME280;9393;42.158;24.748;2023-02-22T14:02:03;99116.22;;;25.30;21.89
18527;BME280;9393;42.158;24.748;2023-02-22T14:05:34;99125.88;;;25.36;21.69
18527;BME280;9393;42.158;24.748;2023-02-22T14:08:43;99120.28;;;25.16;22.32
18527;BME280;9393;42.158;24.748;2023-02-22T14:11:48;99120.66;;;25.25;21.71
18527;BME280;9393;42.158;24.748;2023-02-22T14:15:16;99121.66;;;25.19;21.80
18527;BME280;9393;42.158;24.748;2023-02-22T14:18:35;99123.53;;;25.01;22.14
18527;BME280;9393;42.158;24.748;2023-02-22T14:21:55;99123.72;;;24.95;22.50
18527;BME280;9393;42.158;24.748;2023-02-22T14:25:05;99126.44;;;24.67;22.48
18527;BME280;9393;42.158;24.748;2023-02-22T14:28:34;99123.69;;;24.78;22.35
18527;BME280;9393;42.158;24.748;2023-02-22T14:31:59;99119.81;;;24.69;22.34
18527;BME280;9393;42.158;24.748;2023-02-22T14:35:04;99124.19;;;24.75;22.68
18527;BME280;9393;42.158;24.748;2023-02-22T14:38:21;99120.78;;;24.80;22.63
18527;BME280;9393;42.158;24.748;2023-02-22T14:41:29;99122.97;;;24.66;22.80
18527;BME280;9393;42.158;24.748;2023-02-22T14:44:37;99116.84;;;24.82;22.84
18527;BME280;9393;42.158;24.748;2023-02-22T14:47:45;99121.53;;;24.75;22.75
18527;BME280;9393;42.158;24.748;2023-02-22T14:50:54;99119.81;;;24.69;22.87
18527;BME280;9393;42.158;24.748;2023-02-22T14:54:11;99115.28;;;24.53;22.89
18527;BME280;9393;42.158;24.748;2023-02-22T14:57:24;99117.63;;;24.66;22.64
18527;BME280;9393;42.158;24.748;2023-02-22T15:00:37;99124.16;;;24.42;22.51
18527;BME280;9393;42.158;24.748;2023-02-22T15:03:43;99120.19;;;24.28;22.11
18527;BME280;9393;42.158;24.748;2023-02-22T15:06:49;99117.44;;;24.23;22.45
18527;BME280;9393;42.158;24.748;2023-02-22T15:10:15;99121.75;;;24.24;22.52
18527;BME280;9393;42.158;24.748;2023-02-22T15:13:25;99124.78;;;24.16;22.93
18527;BME280;9393;42.158;24.748;2023-02-22T15:16:33;99124.09;;;24.08;23.00
18527;BME280;9393;42.158;24.748;2023-02-22T15:19:39;99121.94;;;23.94;23.41
18527;BME280;9393;42.158;24.748;2023-02-22T15:22:44;99121.44;;;23.69;23.83
18527;BME280;9393;42.158;24.748;2023-02-22T15:25:49;99122.75;;;23.66;23.62
18527;BME280;9393;42.158;24.748;2023-02-22T15:28:56;99129.16;;;23.42;23.51
18527;BME280;9393;42.158;24.748;2023-02-22T15:32:00;99127.19;;;23.37;24.24
18527;BME280;9393;42.158;24.748;2023-02-22T15:35:12;99126.72;;;23.29;24.15
18527;BME280;9393;42.158;24.748;2023-02-22T15:38:21;99128.94;;;23.08;24.20
18527;BME280;9393;42.158;24.748;2023-02-22T15:41:31;99127.91;;;23.09;24.51
18527;BME280;9393;42.158;24.748;2023-02-22T15:44:39;99128.03;;;22.91;24.06
18527;BME280;9393;42.158;24.748;2023-02-22T15:47:43;99135.75;;;22.93;24.47
18527;BME280;9393;42.158;24.748;2023-02-22T15:51:02;99125.69;;;22.83;24.91
18527;BME280;9393;42.158;24.748;2023-02-22T15:54:08;99136.22;;;22.78;24.76
18527;BME280;9393;42.158;24.748;2023-02-22T15:57:28;99136.00;;;22.68;24.89
18527;BME280;9393;42.158;24.748;2023-02-22T16:00:34;99138.59;;;22.56;25.16
18527;BME280;9393;42.158;24.748;2023-02-22T16:03:41;99142.75;;;22.52;24.96
18527;BME280;9393;42.158;24.748;2023-02-22T16:06:50;99137.97;;;22.43;25.10
18527;BME280;9393;42.158;24.748;2023-02-22T16:09:56;99141.41;;;22.32;25.60
18527;BME280;9393;42.158;24.748;2023-02-22T16:13:06;99145.81;;;22.26;25.64
18527;BME280;9393;42.158;24.748;2023-02-22T16:16:30;99143.09;;;22.14;25.96
18527;BME280;9393;42.158;24.748;2023-02-22T16:19:36;99146.66;;;22.08;26.08
18527;BME280;9393;42.158;24.748;2023-02-22T16:22:44;99148.13;;;22.04;26.11
18527;BME280;9393;42.158;24.748;2023-02-22T16:26:01;99153.19;;;21.94;26.19
18527;BME280;9393;42.158;24.748;2023-02-22T16:29:07;99153.78;;;21.78;26.46
18527;BME280;9393;42.158;24.748;2023-02-22T16:32:13;99156.88;;;21.75;26.53
18527;BME280;9393;42.158;24.748;2023-02-22T16:35:18;99164.75;;;21.63;26.97
18527;BME280;9393;42.158;24.748;2023-02-22T16:38:22;99167.56;;;21.50;26.96
18527;BME280;9393;42.158;24.748;2023-02-22T16:41:29;99172.34;;;21.60;26.88
18527;BME280;9393;42.158;24.748;2023-02-22T16:44:33;99172.19;;;21.37;26.96
18527;BME280;9393;42.158;24.748;2023-02-22T16:47:39;99179.84;;;21.27;27.16
18527;BME280;9393;42.158;24.748;2023-02-22T16:50:43;99180.94;;;21.19;27.43
18527;BME280;9393;42.158;24.748;2023-02-22T16:53:47;99184.88;;;20.85;27.92